Terminal Aerodrome Forecast
Issued by NWS Spokane, WA

Home | Current Version | Previous Version | Text Only | Print | Product List | Glossary On
Versions: 1 2 3 4 5 6 7 8 9 10 11 12 13 14 15 16 17
000
FTUS46 KOTX 211730
TAFLWS
TAF
KLWS 211730Z 2118/2218 10007KT P6SM OVC080
     FM211900 12012KT P6SM -RA OVC050
     FM220200 15016G24KT P6SM -RA OVC045
     FM220800 17014KT P6SM -RA OVC050 WS020/23050KT
     FM221600 23017G30KT P6SM VCSH BKN050 OVC080=

USA.gov is the U.S. government's official web portal to all federal, state and local government web resources and services.